createdAt,value
2022-11-16T00:02:35.476Z,11.40
2022-11-16T00:05:37.166Z,11.30
2022-11-16T00:08:44.548Z,11.30
2022-11-16T00:11:48.343Z,11.30
2022-11-16T00:14:50.990Z,11.30
2022-11-16T00:17:52.839Z,11.30
2022-11-16T00:20:54.500Z,11.30
2022-11-16T00:23:56.591Z,11.30
2022-11-16T00:26:58.256Z,11.40
2022-11-16T00:29:59.852Z,11.30
2022-11-16T00:33:07.426Z,11.40
2022-11-16T00:36:12.730Z,11.30
2022-11-16T00:39:15.868Z,11.30
2022-11-16T00:42:17.459Z,11.30
2022-11-16T00:45:19.778Z,11.20
2022-11-16T00:48:21.523Z,11.20
2022-11-16T00:51:23.151Z,11.30
2022-11-16T00:54:24.850Z,11.20
2022-11-16T00:57:26.473Z,11.20
2022-11-16T01:00:28.070Z,11.20
2022-11-16T01:03:29.665Z,11.10
2022-11-16T01:06:31.299Z,11.20
2022-11-16T01:09:32.909Z,11.10
2022-11-16T01:12:34.999Z,11.10
2022-11-16T01:15:36.590Z,11.10
2022-11-16T01:18:38.188Z,11.10
2022-11-16T01:21:39.804Z,11.10
2022-11-16T01:24:41.484Z,11.00
2022-11-16T01:27:43.831Z,11.00
2022-11-16T01:30:48.634Z,10.90
2022-11-16T01:33:50.238Z,10.90
2022-11-16T01:36:51.864Z,10.90
2022-11-16T01:39:53.520Z,10.80
2022-11-16T01:42:55.104Z,10.80
2022-11-16T01:45:56.739Z,10.70
2022-11-16T01:49:10.177Z,10.70
2022-11-16T01:52:15.582Z,10.70
2022-11-16T01:55:17.382Z,10.50
2022-11-16T01:58:23.153Z,10.50
2022-11-16T02:01:24.902Z,10.50
2022-11-16T02:04:27.011Z,10.50
2022-11-16T02:07:58.550Z,10.40
2022-11-16T02:11:14.049Z,10.30
2022-11-16T02:14:43.428Z,10.30
2022-11-16T02:18:09.830Z,10.30
2022-11-16T02:21:30.382Z,10.30
2022-11-16T02:24:56.345Z,10.20
2022-11-16T02:28:05.412Z,10.20
2022-11-16T02:31:12.646Z,10.20
2022-11-16T02:34:16.676Z,10.20
2022-11-16T02:37:20.734Z,10.20
2022-11-16T02:40:24.855Z,10.10
2022-11-16T02:43:36.102Z,10.00
2022-11-16T02:46:41.505Z,9.80
2022-11-16T02:49:48.115Z,9.70
2022-11-16T02:52:49.897Z,9.80
2022-11-16T02:55:51.758Z,9.50
2022-11-16T02:58:53.485Z,9.60
2022-11-16T03:02:12.559Z,9.50
2022-11-16T03:05:38.249Z,9.50
2022-11-16T03:08:47.878Z,9.40
2022-11-16T03:11:59.712Z,9.40
2022-11-16T03:15:07.221Z,9.40
2022-11-16T03:18:09.103Z,9.40
2022-11-16T03:21:25.496Z,9.40
2022-11-16T03:24:27.225Z,9.30
2022-11-16T03:27:43.461Z,9.30
2022-11-16T03:30:52.671Z,9.30
2022-11-16T03:33:57.731Z,9.30
2022-11-16T03:37:01.737Z,9.20
2022-11-16T03:40:04.949Z,9.30
2022-11-16T03:43:07.747Z,9.20
2022-11-16T03:46:09.823Z,9.20
2022-11-16T03:49:11.984Z,9.20
2022-11-16T03:52:16.292Z,9.30
2022-11-16T03:55:18.010Z,9.20
2022-11-16T03:58:19.627Z,9.20
2022-11-16T04:01:21.376Z,9.20
2022-11-16T04:04:41.491Z,9.10
2022-11-16T04:08:02.441Z,9.00
2022-11-16T04:11:23.090Z,9.00
2022-11-16T04:14:45.080Z,9.00
2022-11-16T04:18:05.549Z,9.00
2022-11-16T04:21:36.141Z,9.00
2022-11-16T04:24:41.607Z,8.90
2022-11-16T04:28:01.761Z,8.90
2022-11-16T04:31:23.850Z,8.90
2022-11-16T04:34:44.296Z,8.90
2022-11-16T04:37:48.823Z,8.90
2022-11-16T04:40:50.442Z,8.90
2022-11-16T04:43:52.036Z,8.90
2022-11-16T04:47:08.667Z,8.90
2022-11-16T04:50:10.732Z,8.90
2022-11-16T04:53:12.976Z,8.90
2022-11-16T04:56:14.619Z,8.80
2022-11-16T04:59:16.347Z,8.80
2022-11-16T05:02:18.003Z,8.80
2022-11-16T05:05:19.662Z,8.80
2022-11-16T05:08:21.285Z,8.80
2022-11-16T05:11:23.687Z,8.80
2022-11-16T05:14:25.319Z,8.80
2022-11-16T05:17:27.759Z,8.70
2022-11-16T05:20:47.667Z,8.70
2022-11-16T05:24:07.939Z,8.70
2022-11-16T05:27:14.167Z,8.70
2022-11-16T05:30:16.281Z,8.60
2022-11-16T05:33:18.549Z,8.70
2022-11-16T05:36:20.182Z,8.60
2022-11-16T05:39:24.476Z,8.60
2022-11-16T05:42:29.260Z,8.60
2022-11-16T05:45:33.642Z,8.60
2022-11-16T05:48:35.526Z,8.60
2022-11-16T05:51:39.052Z,8.60
2022-11-16T05:54:40.672Z,8.60
2022-11-16T05:57:45.409Z,8.60
2022-11-16T06:00:47.286Z,8.60
2022-11-16T06:03:48.950Z,8.50
2022-11-16T06:06:50.620Z,8.50
2022-11-16T06:09:52.365Z,8.50
2022-11-16T06:12:54.107Z,8.60
2022-11-16T06:15:55.832Z,8.50
2022-11-16T06:18:57.536Z,8.50
2022-11-16T06:21:59.282Z,8.40
2022-11-16T06:25:00.909Z,8.40
2022-11-16T06:28:07.461Z,8.40
2022-11-16T06:31:09.627Z,8.50
2022-11-16T06:34:11.328Z,8.40
2022-11-16T06:37:13.194Z,8.50
2022-11-16T06:40:14.819Z,8.40
2022-11-16T06:43:16.592Z,8.40
2022-11-16T06:46:18.272Z,8.40
2022-11-16T06:49:19.970Z,8.40
2022-11-16T06:52:21.618Z,8.30
2022-11-16T06:55:23.279Z,8.40
2022-11-16T06:58:24.929Z,8.30
2022-11-16T07:01:26.762Z,8.20
2022-11-16T07:04:28.450Z,8.20
2022-11-16T07:07:30.217Z,8.10
2022-11-16T07:10:31.876Z,8.10
2022-11-16T07:13:34.668Z,8.10
2022-11-16T07:16:36.443Z,8.10
2022-11-16T07:19:38.083Z,8.20
2022-11-16T07:22:39.725Z,8.20
2022-11-16T07:25:43.464Z,8.10
2022-11-16T07:28:48.435Z,8.20
2022-11-16T07:31:50.789Z,8.20
2022-11-16T07:34:52.431Z,8.30
2022-11-16T07:37:54.147Z,8.30
2022-11-16T07:41:00.393Z,8.30
2022-11-16T07:44:02.107Z,8.40
2022-11-16T07:47:21.009Z,8.40
2022-11-16T07:50:22.717Z,8.50
2022-11-16T07:53:24.451Z,8.50
2022-11-16T07:56:26.289Z,8.50
2022-11-16T07:59:28.362Z,8.50
2022-11-16T08:02:30.214Z,8.50
2022-11-16T08:05:31.839Z,8.50
2022-11-16T08:08:34.114Z,8.50
2022-11-16T08:11:52.467Z,8.50
2022-11-16T08:14:54.117Z,8.50
2022-11-16T08:17:58.321Z,8.50
2022-11-16T08:21:00.498Z,8.40
2022-11-16T08:24:02.116Z,8.40
2022-11-16T08:27:03.922Z,8.30
2022-11-16T08:30:09.899Z,8.30
2022-11-16T08:33:14.601Z,8.40
2022-11-16T08:36:24.066Z,8.40
2022-11-16T08:39:25.948Z,8.40
2022-11-16T08:42:27.611Z,8.50
2022-11-16T08:45:30.932Z,8.50
2022-11-16T08:48:45.916Z,8.50
2022-11-16T08:51:47.544Z,8.50
2022-11-16T08:54:49.161Z,8.50
2022-11-16T08:57:50.858Z,8.50
2022-11-16T09:01:11.579Z,8.50
2022-11-16T09:04:13.493Z,8.60
2022-11-16T09:07:15.291Z,8.60
2022-11-16T09:10:19.023Z,8.60
2022-11-16T09:13:20.710Z,8.60
2022-11-16T09:16:23.053Z,8.70
2022-11-16T09:19:24.761Z,8.70
2022-11-16T09:22:26.620Z,8.70
2022-11-16T09:25:28.275Z,8.70
2022-11-16T09:28:30.407Z,8.80
2022-11-16T09:31:34.770Z,8.70
2022-11-16T09:34:36.824Z,8.80
2022-11-16T09:37:38.573Z,8.80
2022-11-16T09:40:44.824Z,8.80
2022-11-16T09:43:48.386Z,8.80
2022-11-16T09:46:55.724Z,8.80
2022-11-16T09:50:16.335Z,8.80
2022-11-16T09:53:30.587Z,8.80
2022-11-16T09:56:37.641Z,8.80
2022-11-16T09:59:51.596Z,8.90
2022-11-16T10:03:02.391Z,8.80
2022-11-16T10:06:07.837Z,8.90
2022-11-16T10:09:12.299Z,8.90
2022-11-16T10:12:22.842Z,8.90
2022-11-16T10:15:54.311Z,8.90
2022-11-16T10:19:11.807Z,9.00
2022-11-16T10:22:39.781Z,9.00
2022-11-16T10:25:49.192Z,9.00
2022-11-16T10:29:10.195Z,9.10
2022-11-16T10:32:32.764Z,9.10
2022-11-16T10:35:39.602Z,9.10
2022-11-16T10:38:43.066Z,9.10
2022-11-16T10:41:49.648Z,9.10
2022-11-16T10:44:58.401Z,9.20
2022-11-16T10:48:26.197Z,9.20
2022-11-16T10:51:27.824Z,9.20
2022-11-16T10:54:29.557Z,9.20
2022-11-16T10:57:57.236Z,9.20
2022-11-16T11:00:59.992Z,9.30
2022-11-16T11:04:23.005Z,9.30
2022-11-16T11:07:35.310Z,9.30
2022-11-16T11:10:41.627Z,9.30
2022-11-16T11:13:46.285Z,9.30
2022-11-16T11:16:53.043Z,9.30
2022-11-16T11:20:31.849Z,9.30
2022-11-16T11:24:16.376Z,9.30
2022-11-16T11:27:25.644Z,9.30
2022-11-16T11:30:27.325Z,9.30
2022-11-16T11:33:33.070Z,9.40
2022-11-16T11:36:43.691Z,9.40
2022-11-16T11:39:45.364Z,9.40
2022-11-16T11:43:05.232Z,9.40
2022-11-16T11:46:16.304Z,9.50
2022-11-16T11:49:33.914Z,9.40
2022-11-16T11:52:42.203Z,9.50
2022-11-16T11:55:43.828Z,9.50
2022-11-16T11:58:46.751Z,9.50
2022-11-16T12:02:30.743Z,9.50
2022-11-16T12:05:44.230Z,9.50
2022-11-16T12:09:04.692Z,9.60
2022-11-16T12:12:29.700Z,9.60
2022-11-16T12:15:49.393Z,9.60
2022-11-16T12:19:08.522Z,9.60
2022-11-16T12:22:28.997Z,9.70
2022-11-16T12:25:58.329Z,9.70
2022-11-16T12:29:19.412Z,9.80
2022-11-16T12:32:47.039Z,9.80
2022-11-16T12:36:16.382Z,9.80
2022-11-16T12:39:53.466Z,9.90
2022-11-16T12:43:03.088Z,9.90
2022-11-16T12:46:49.615Z,9.90
2022-11-16T12:50:26.123Z,10.00
2022-11-16T12:53:55.280Z,10.00
2022-11-16T12:57:29.020Z,10.00
2022-11-16T13:00:44.139Z,10.00
2022-11-16T13:03:54.481Z,10.10
2022-11-16T13:07:32.505Z,10.10
2022-11-16T13:10:38.889Z,10.10
2022-11-16T13:13:45.746Z,10.10
2022-11-16T13:16:51.143Z,10.20
2022-11-16T13:20:30.147Z,10.20
2022-11-16T13:23:32.134Z,10.30
2022-11-16T13:26:43.830Z,10.30
2022-11-16T13:30:03.464Z,10.40
2022-11-16T13:33:29.948Z,10.50
2022-11-16T13:36:40.375Z,10.70
2022-11-16T13:39:57.058Z,10.70
2022-11-16T13:43:10.750Z,10.70
2022-11-16T13:46:56.944Z,10.70
2022-11-16T13:50:05.422Z,10.70
2022-11-16T13:56:49.530Z,10.70
2022-11-16T14:00:02.408Z,10.60
2022-11-16T14:03:16.162Z,10.70
2022-11-16T14:06:23.883Z,10.80
2022-11-16T14:09:48.870Z,10.80
2022-11-16T14:12:52.878Z,10.80
2022-11-16T14:16:21.971Z,10.80
2022-11-16T14:19:49.088Z,10.70
2022-11-16T14:22:55.947Z,10.70
2022-11-16T14:26:19.736Z,10.60
2022-11-16T14:29:31.312Z,10.60
2022-11-16T14:32:45.175Z,10.50
2022-11-16T14:35:52.465Z,10.50
2022-11-16T14:39:31.558Z,10.40
2022-11-16T14:43:01.968Z,10.40
2022-11-16T14:46:09.356Z,10.30
2022-11-16T14:49:16.803Z,10.20
2022-11-16T14:52:35.085Z,10.00
2022-11-16T14:55:42.960Z,10.00
2022-11-16T14:58:58.903Z,9.90
2022-11-16T15:02:11.871Z,9.80
2022-11-16T15:05:20.063Z,9.70
2022-11-16T15:08:26.398Z,9.60
2022-11-16T15:11:54.675Z,9.60
2022-11-16T15:15:00.738Z,9.50
2022-11-16T15:18:02.308Z,9.40
2022-11-16T15:21:04.086Z,9.40
2022-11-16T15:24:29.251Z,9.40
2022-11-16T15:27:37.990Z,9.30
2022-11-16T15:30:40.421Z,9.30
2022-11-16T15:33:44.254Z,9.30
2022-11-16T15:36:46.465Z,9.20
2022-11-16T15:39:48.219Z,9.20
2022-11-16T15:42:51.289Z,9.20
2022-11-16T15:45:53.935Z,9.10
2022-11-16T15:48:56.300Z,9.10
2022-11-16T15:51:59.404Z,9.10
2022-11-16T15:55:21.687Z,9.00
2022-11-16T15:58:26.643Z,9.00
2022-11-16T16:01:31.571Z,8.90
2022-11-16T16:04:33.268Z,8.90
2022-11-16T16:07:42.915Z,8.90
2022-11-16T16:10:44.531Z,9.00
2022-11-16T16:13:57.509Z,9.00
2022-11-16T16:17:00.762Z,9.00
2022-11-16T16:20:07.506Z,9.00
2022-11-16T16:23:13.197Z,8.90
2022-11-16T16:26:15.924Z,8.90
2022-11-16T16:29:17.532Z,8.90
2022-11-16T16:32:30.735Z,8.90
2022-11-16T16:35:32.334Z,8.80
2022-11-16T16:38:33.962Z,8.80
2022-11-16T16:41:35.552Z,8.70
2022-11-16T16:44:37.176Z,8.60
2022-11-16T16:47:41.581Z,8.60
2022-11-16T16:50:43.740Z,8.60
2022-11-16T16:53:45.386Z,8.50
2022-11-16T16:56:47.039Z,8.50
2022-11-16T16:59:49.142Z,8.40
2022-11-16T17:02:51.002Z,8.30
2022-11-16T17:05:53.567Z,8.30
2022-11-16T17:08:58.914Z,8.30
2022-11-16T17:12:00.737Z,8.30
2022-11-16T17:15:02.552Z,8.20
2022-11-16T17:18:04.329Z,8.20
2022-11-16T17:21:07.630Z,8.20
2022-11-16T17:24:09.624Z,8.20
2022-11-16T17:27:11.332Z,8.20
2022-11-16T17:30:13.811Z,8.20
2022-11-16T17:33:15.471Z,8.20
2022-11-16T17:36:17.780Z,8.20
2022-11-16T17:39:19.659Z,8.20
2022-11-16T17:42:21.291Z,8.10
2022-11-16T17:45:23.069Z,8.10
2022-11-16T17:48:25.056Z,8.10
2022-11-16T17:51:27.789Z,8.00
2022-11-16T17:54:29.500Z,8.00
2022-11-16T17:57:31.311Z,8.00
2022-11-16T18:00:34.390Z,8.00
2022-11-16T18:03:37.412Z,7.90
2022-11-16T18:06:41.883Z,7.90
2022-11-16T18:09:43.663Z,7.90
2022-11-16T18:12:45.293Z,7.80
2022-11-16T18:15:46.927Z,7.80
2022-11-16T18:18:49.454Z,7.80
2022-11-16T18:21:51.496Z,7.80
2022-11-16T18:24:53.150Z,7.70
2022-11-16T18:27:55.999Z,7.70
2022-11-16T18:31:09.700Z,7.70
2022-11-16T18:34:14.055Z,7.60
2022-11-16T18:37:15.945Z,7.70
2022-11-16T18:40:18.053Z,7.50
2022-11-16T18:43:19.670Z,7.60
2022-11-16T18:46:24.974Z,7.70
2022-11-16T18:49:26.860Z,7.50
2022-11-16T18:52:28.633Z,7.60
2022-11-16T18:55:31.422Z,7.50
2022-11-16T18:58:49.929Z,7.50
2022-11-16T19:01:52.319Z,7.50
2022-11-16T19:04:53.921Z,7.30
2022-11-16T19:07:55.549Z,7.20
2022-11-16T19:10:57.151Z,7.20
2022-11-16T19:14:08.704Z,7.20
2022-11-16T19:17:10.436Z,7.30
2022-11-16T19:20:12.475Z,7.30
2022-11-16T19:23:14.108Z,7.20
2022-11-16T19:26:18.120Z,7.20
2022-11-16T19:29:19.844Z,7.30
2022-11-16T19:32:21.471Z,7.40
2022-11-16T19:35:23.285Z,7.40
2022-11-16T19:38:24.920Z,7.40
2022-11-16T19:41:27.687Z,7.10
2022-11-16T19:44:29.321Z,7.20
2022-11-16T19:47:30.951Z,7.30
2022-11-16T19:50:34.480Z,7.10
2022-11-16T19:53:40.426Z,7.00
2022-11-16T19:56:49.285Z,7.20
2022-11-16T19:59:56.538Z,7.00
2022-11-16T20:02:58.319Z,7.00
2022-11-16T20:06:14.950Z,7.00
2022-11-16T20:09:16.688Z,7.00
2022-11-16T20:12:18.389Z,7.10
2022-11-16T20:15:20.501Z,7.00
2022-11-16T20:18:22.188Z,7.10
2022-11-16T20:21:29.244Z,7.10
2022-11-16T20:24:31.042Z,7.20
2022-11-16T20:27:32.698Z,7.20
2022-11-16T20:30:34.864Z,7.20
2022-11-16T20:33:37.141Z,7.20
2022-11-16T20:36:46.785Z,7.30
2022-11-16T20:39:52.388Z,7.20
2022-11-16T20:42:59.032Z,7.10
2022-11-16T20:46:00.932Z,7.10
2022-11-16T20:49:02.800Z,7.10
2022-11-16T20:52:04.760Z,7.10
2022-11-16T20:55:15.723Z,7.10
2022-11-16T20:58:21.498Z,7.10
2022-11-16T21:01:31.616Z,7.20
2022-11-16T21:04:33.640Z,7.20
2022-11-16T21:07:38.566Z,7.00
2022-11-16T21:10:40.387Z,7.10
2022-11-16T21:14:00.750Z,7.30
2022-11-16T21:17:02.532Z,7.20
2022-11-16T21:20:28.601Z,7.10
2022-11-16T21:23:34.384Z,6.90
2022-11-16T21:26:39.437Z,7.10
2022-11-16T21:29:41.132Z,6.80
2022-11-16T21:32:44.496Z,7.00
2022-11-16T21:35:46.215Z,6.80
2022-11-16T21:38:48.733Z,6.70
2022-11-16T21:41:50.480Z,7.00
2022-11-16T21:44:52.259Z,6.90
2022-11-16T21:47:53.957Z,7.00
2022-11-16T21:51:15.864Z,6.70
2022-11-16T21:54:17.553Z,6.70
2022-11-16T21:57:19.280Z,6.60
2022-11-16T22:00:21.144Z,6.70
2022-11-16T22:03:28.484Z,6.70
2022-11-16T22:07:07.013Z,6.60
2022-11-16T22:10:13.087Z,6.70
2022-11-16T22:13:18.012Z,6.60
2022-11-16T22:16:21.333Z,6.70
2022-11-16T22:19:23.017Z,6.60
2022-11-16T22:22:24.957Z,6.50
2022-11-16T22:25:26.747Z,6.50
2022-11-16T22:28:28.634Z,6.70
2022-11-16T22:31:30.286Z,6.70
2022-11-16T22:34:32.013Z,6.80
2022-11-16T22:37:33.704Z,6.70
2022-11-16T22:40:35.483Z,6.50
2022-11-16T22:43:37.793Z,6.70
2022-11-16T22:46:40.042Z,6.40
2022-11-16T22:49:41.811Z,6.40
2022-11-16T22:52:43.633Z,6.40
2022-11-16T22:55:46.493Z,6.40
2022-11-16T22:58:48.257Z,6.70
2022-11-16T23:01:49.948Z,6.40
2022-11-16T23:04:51.669Z,6.50
2022-11-16T23:07:55.863Z,6.30
2022-11-16T23:11:17.667Z,6.40
2022-11-16T23:14:37.942Z,6.40
2022-11-16T23:17:39.647Z,6.30
2022-11-16T23:21:05.062Z,6.40
2022-11-16T23:24:31.991Z,6.40
2022-11-16T23:28:23.908Z,6.40
2022-11-16T23:31:25.590Z,6.30
2022-11-16T23:34:27.269Z,6.30
2022-11-16T23:37:29.045Z,6.30
2022-11-16T23:40:33.434Z,6.30
2022-11-16T23:43:53.712Z,6.30
2022-11-16T23:46:55.492Z,6.20
2022-11-16T23:49:57.211Z,6.10
2022-11-16T23:52:59.084Z,6.10
2022-11-16T23:56:05.730Z,6.30
2022-11-16T23:59:07.971Z,6.30
